Airfield :
LOGIN :

Register | Disclaimer

   EN    FR    IT 

 










Legend :    VFR   Marginal VFR   IFR   Intensive IFR   Very Intensive IFR
Visi :
Ceiling :
>= 8 km
>= 3000ft
5 to 8 km
1000 to 3000 ft
1500m to 5 km
500 to 1000 ft
800 to 1500m
200 to 500 ft
< 800m
< 200 ft
Symbols :   Thunderstorms  Fog  Heavy snow  Heavy precipitations  Wind > 20 kt
SIGMETs :     Misc.  Thunderstorms  Icing  Turbulence  Mountain Waves  Volcanic Ashes






- Airport Elevation : 160 ft
- IATA code : SRP


ENSO - Stord

CURRENT METAR :
  • 281720Z 22012G25KT 170V260 9000 SHRAGS FEW008 SCT013CB BKN021 08/07 Q0989

EXPIRED METARs :
  • 281650Z 23010G22KT 160V290 7000 +SHRAGS FEW009 SCT014CB BKN022 07/06 Q0990
  • 281620Z 21012G22KT 9999 +SHRAGS FEW010 SCT014CB BKN027 08/07 Q0989
  • 281550Z 21010G20KT 9999 SHRA FEW012 SCT016CB BKN027 08/08 Q0988
  • 281450Z 21013G27KT 9999 -RA FEW010 SCT015TCU BKN027 09/08 Q0988

Expired Forecast.



MET'MAP, your aeronautical weather chart ! - Copyright ORBIFLY December 2007 - Disclaimer

ORBIFLY MET'MAP TEAM :

Programming & Development : Alexandra Zaïnal
Concept & original design : Baudouin d'Aumeries
Assistance for programming : Marc-Olivier Méhu
Technical & hardware support : Manuel Goepfert

Contact : metmap@orbifly.com




SOURCES & CREDITS :

   NOAA